Aviation Digital Data Service (ADDS)

Output produced by METARs form (0006 UTC 08 July 2015)
found at http://aviationweather.gov/adds/metars/
 
KFAY 072320Z 0800/0824 21005KT P6SM FEW045 BKN250 
     FM081300 25008KT P6SM BKN250 
     FM082000 27011G18KT P6SM BKN040 BKN250